Time;durP1;ratioP1;P1;durP2;ratioP2;P2;SDS_P1;SDS_P2;PMS_P1;PMS_P2;Temp;Humidity;BMP_temperature;BMP_pressure;BME280_temperature;BME280_humidity;BME280_pressure;Samples;Min_cycle;Max_cycle;Signal;HPM_P1;HPM_P2
2023/05/26 00:00:22;;;;;;;29.73;6.03;;;8.50;99.90;;;;;;5033777;28;20041;-74
2023/05/26 00:02:48;;;;;;;23.85;5.53;;;8.50;99.90;;;;;;5032697;28;20053;-74
2023/05/26 00:05:16;;;;;;;26.05;5.68;;;8.30;99.90;;;;;;5032308;28;20128;-74
2023/05/26 00:07:42;;;;;;;25.50;5.75;;;8.30;99.90;;;;;;5032400;28;20402;-74
2023/05/26 00:10:09;;;;;;;20.95;5.25;;;8.30;99.90;;;;;;5033811;28;20482;-75
2023/05/26 00:12:36;;;;;;;23.55;5.18;;;8.30;99.90;;;;;;5032485;28;20080;-74
2023/05/26 00:15:03;;;;;;;28.30;6.05;;;8.30;99.90;;;;;;5032301;28;20056;-74
2023/05/26 00:17:28;;;;;;;24.90;5.93;;;8.30;99.90;;;;;;5032405;28;20405;-74
2023/05/26 00:19:54;;;;;;;27.88;6.15;;;8.30;99.90;;;;;;5032020;28;20037;-74
2023/05/26 00:22:21;;;;;;;28.83;6.30;;;8.30;99.90;;;;;;5032135;28;20041;-74
2023/05/26 00:24:47;;;;;;;24.27;6.20;;;8.30;99.90;;;;;;5032173;28;20370;-74
2023/05/26 00:27:13;;;;;;;26.00;5.72;;;8.20;99.90;;;;;;5032058;28;20052;-74
2023/05/26 00:29:39;;;;;;;29.13;6.28;;;8.20;99.90;;;;;;5031975;28;20037;-74
2023/05/26 00:32:06;;;;;;;26.15;5.00;;;8.20;99.90;;;;;;5031845;28;20039;-74
2023/05/26 00:34:35;;;;;;;25.17;5.78;;;8.10;99.90;;;;;;5033189;28;20041;-74
2023/05/26 00:37:01;;;;;;;25.52;5.88;;;8.10;99.90;;;;;;5032144;28;20033;-74
2023/05/26 00:39:28;;;;;;;28.33;5.78;;;8.10;99.90;;;;;;5031939;28;20124;-74
2023/05/26 00:41:54;;;;;;;26.33;6.05;;;8.10;99.90;;;;;;5031800;28;20049;-74
2023/05/26 00:44:21;;;;;;;25.42;5.88;;;8.10;99.90;;;;;;5015402;28;20037;-74
2023/05/26 00:46:47;;;;;;;22.75;5.47;;;8.10;99.90;;;;;;5031812;28;20046;-74
2023/05/26 00:49:13;;;;;;;23.98;5.60;;;8.10;99.90;;;;;;5031584;28;20041;-74
2023/05/26 00:51:40;;;;;;;26.15;5.38;;;8.00;99.90;;;;;;5031248;28;20499;-74
2023/05/26 00:54:09;;;;;;;23.67;5.90;;;8.10;99.90;;;;;;5032002;28;20045;-74
2023/05/26 00:56:35;;;;;;;27.65;6.00;;;8.00;99.90;;;;;;5032946;28;20037;-74
2023/05/26 00:59:05;;;;;;;23.25;5.70;;;8.00;99.90;;;;;;5031586;28;20053;-74
2023/05/26 01:01:34;;;;;;;23.17;5.80;;;8.00;99.90;;;;;;5031947;28;20393;-74
2023/05/26 01:04:00;;;;;;;24.17;5.78;;;8.00;99.90;;;;;;5031658;28;20049;-74
2023/05/26 01:06:26;;;;;;;21.63;5.05;;;7.90;99.90;;;;;;5015061;28;20405;-74
2023/05/26 01:08:52;;;;;;;23.23;5.63;;;7.90;99.90;;;;;;5015023;28;20464;-74
2023/05/26 01:11:50;;;;;;;23.08;5.50;;;7.90;99.90;;;;;;5031537;28;20052;-74
2023/05/26 01:14:18;;;;;;;22.58;5.38;;;7.90;99.90;;;;;;5009566;28;20120;-74
2023/05/26 01:16:57;;;;;;;16.25;4.93;;;7.90;99.90;;;;;;5032673;28;20045;-74
2023/05/26 01:19:42;;;;;;;21.10;5.20;;;7.80;99.90;;;;;;5031771;28;20497;-74
2023/05/26 01:22:30;;;;;;;26.40;5.00;;;7.90;99.90;;;;;;5031683;28;20089;-74
2023/05/26 01:25:16;;;;;;;22.50;5.15;;;7.90;99.90;;;;;;5032696;28;20053;-74
2023/05/26 01:28:09;;;;;;;20.10;5.38;;;7.80;99.90;;;;;;5011195;28;20050;-74
2023/05/26 01:30:36;;;;;;;21.17;5.05;;;7.80;99.90;;;;;;5031423;28;20041;-74
2023/05/26 01:33:02;;;;;;;22.50;5.15;;;7.80;99.90;;;;;;5031407;28;20041;-74
2023/05/26 01:35:28;;;;;;;31.08;5.95;;;7.80;99.90;;;;;;5031268;28;20037;-74
2023/05/26 01:37:55;;;;;;;26.00;5.63;;;7.70;99.90;;;;;;5031222;28;20433;-74
2023/05/26 01:40:21;;;;;;;22.70;5.35;;;7.60;99.90;;;;;;5014885;28;20124;-74
2023/05/26 01:43:18;;;;;;;21.17;5.53;;;7.60;99.90;;;;;;5031160;28;20111;-74
2023/05/26 01:46:27;;;;;;;36.00;6.57;;;7.50;99.90;;;;;;5028614;28;20088;-73
2023/05/26 01:48:57;;;;;;;24.02;5.70;;;7.50;99.90;;;;;;5009342;28;20053;-73
2023/05/26 01:51:25;;;;;;;24.83;5.90;;;7.40;99.90;;;;;;5031553;28;20056;-74
2023/05/26 01:53:55;;;;;;;29.55;6.43;;;7.40;99.90;;;;;;5032703;28;20038;-74
2023/05/26 01:56:22;;;;;;;26.13;5.93;;;7.40;99.90;;;;;;5031175;28;20171;-74
2023/05/26 01:58:50;;;;;;;27.05;5.93;;;7.30;99.90;;;;;;5014896;28;20041;-74
2023/05/26 02:01:16;;;;;;;24.73;5.82;;;7.30;99.90;;;;;;5031387;28;20037;-74
2023/05/26 02:03:42;;;;;;;27.13;6.57;;;7.30;99.90;;;;;;4999871;28;20063;-74
2023/05/26 02:06:08;;;;;;;21.80;5.68;;;7.30;99.90;;;;;;5036047;28;20037;-73
2023/05/26 02:08:35;;;;;;;27.38;5.90;;;7.30;99.90;;;;;;4998846;28;20121;-74
2023/05/26 02:11:02;;;;;;;29.83;6.35;;;7.30;99.90;;;;;;5014596;28;20046;-73
2023/05/26 02:13:27;;;;;;;25.77;5.60;;;7.20;99.90;;;;;;4998528;28;20080;-74
2023/05/26 02:15:53;;;;;;;31.00;6.05;;;7.20;99.90;;;;;;4998195;28;20082;-74
2023/05/26 02:18:21;;;;;;;30.73;6.03;;;7.20;99.90;;;;;;5014531;28;20042;-73
2023/05/26 02:20:47;;;;;;;31.92;6.60;;;7.20;99.90;;;;;;5014573;28;20125;-73
2023/05/26 02:23:13;;;;;;;24.48;6.07;;;7.10;99.90;;;;;;5014850;28;20133;-74
2023/05/26 02:25:38;;;;;;;23.00;5.55;;;7.10;99.90;;;;;;5014440;28;20136;-74
2023/05/26 02:28:04;;;;;;;25.92;5.35;;;7.10;99.90;;;;;;5014378;28;20081;-74
2023/05/26 02:30:30;;;;;;;32.97;5.97;;;7.10;99.90;;;;;;5015744;28;20033;-74
2023/05/26 02:32:56;;;;;;;29.08;5.95;;;7.20;99.90;;;;;;5014514;28;20044;-74
2023/05/26 02:35:22;;;;;;;29.00;5.97;;;7.20;99.90;;;;;;5014211;28;20057;-74
2023/05/26 02:37:47;;;;;;;23.50;5.57;;;7.30;99.90;;;;;;5011313;28;20045;-74
2023/05/26 02:40:13;;;;;;;30.35;6.40;;;7.20;99.90;;;;;;5034022;28;20080;-74
2023/05/26 02:42:39;;;;;;;31.30;6.22;;;7.20;99.90;;;;;;5017456;28;20041;-74
2023/05/26 02:45:06;;;;;;;30.00;5.95;;;7.10;99.90;;;;;;5034193;28;20045;-74
2023/05/26 02:47:31;;;;;;;26.67;6.22;;;7.00;99.90;;;;;;5017321;28;20405;-74
2023/05/26 02:49:57;;;;;;;27.98;5.90;;;7.00;99.90;;;;;;5033887;28;20052;-74
2023/05/26 02:52:23;;;;;;;23.42;5.43;;;7.10;99.90;;;;;;5001050;28;20098;-74
2023/05/26 02:54:50;;;;;;;25.50;5.57;;;7.00;99.90;;;;;;5033707;28;20037;-74
2023/05/26 02:57:15;;;;;;;30.25;6.47;;;6.90;99.90;;;;;;5033634;28;20099;-74
2023/05/26 02:59:41;;;;;;;26.83;5.97;;;7.00;99.90;;;;;;5033501;28;20049;-74
2023/05/26 03:02:07;;;;;;;30.48;6.20;;;7.00;99.90;;;;;;5017106;28;20232;-74
2023/05/26 03:04:33;;;;;;;28.30;6.03;;;7.00;99.90;;;;;;5033652;28;20084;-74
2023/05/26 03:06:59;;;;;;;33.00;6.40;;;6.90;99.90;;;;;;5033590;28;20045;-75
2023/05/26 03:09:24;;;;;;;28.50;6.13;;;6.90;99.90;;;;;;5033517;28;20049;-73
2023/05/26 03:11:50;;;;;;;29.52;6.18;;;6.90;99.90;;;;;;5033388;28;20048;-74
2023/05/26 03:14:16;;;;;;;25.90;6.40;;;6.90;99.90;;;;;;5032975;28;20421;-73
2023/05/26 03:16:43;;;;;;;30.75;6.53;;;7.00;99.90;;;;;;5033284;28;20081;-73
2023/05/26 03:19:09;;;;;;;29.42;5.63;;;6.90;99.90;;;;;;5033520;28;20124;-74
2023/05/26 03:21:35;;;;;;;27.83;6.00;;;6.90;99.90;;;;;;5016938;28;20129;-74
2023/05/26 03:24:01;;;;;;;25.27;6.22;;;6.90;99.90;;;;;;5034319;28;20041;-74
2023/05/26 03:26:26;;;;;;;21.98;5.63;;;7.00;99.90;;;;;;5033444;28;20049;-73
2023/05/26 03:28:52;;;;;;;25.27;5.78;;;7.00;99.90;;;;;;5016449;28;20167;-73
2023/05/26 03:31:18;;;;;;;25.10;5.70;;;7.00;99.90;;;;;;5033235;28;20033;-73
2023/05/26 03:33:45;;;;;;;30.25;6.55;;;7.00;99.90;;;;;;5032987;28;20038;-73
2023/05/26 03:36:10;;;;;;;27.02;5.93;;;7.00;99.90;;;;;;5034343;28;20041;-73
2023/05/26 03:38:36;;;;;;;31.38;6.43;;;7.00;99.90;;;;;;5032876;28;20042;-73
2023/05/26 03:41:02;;;;;;;31.40;6.63;;;7.00;99.90;;;;;;5033110;28;20111;-74
2023/05/26 03:43:28;;;;;;;34.35;6.25;;;7.00;99.90;;;;;;5033175;28;20075;-73
2023/05/26 03:45:54;;;;;;;29.05;6.85;;;6.90;99.90;;;;;;5016601;28;20041;-74
2023/05/26 03:48:20;;;;;;;21.17;5.38;;;6.90;99.90;;;;;;5032685;28;20049;-73
2023/05/26 03:50:46;;;;;;;25.58;5.82;;;6.90;99.90;;;;;;5016230;28;20111;-73
2023/05/26 03:53:12;;;;;;;26.40;5.40;;;6.90;99.90;;;;;;5033857;28;20095;-73
2023/05/26 03:55:38;;;;;;;29.95;6.40;;;6.90;99.90;;;;;;5033789;28;20064;-73
2023/05/26 03:58:04;;;;;;;30.85;6.07;;;7.00;99.90;;;;;;5032553;28;20042;-73
2023/05/26 04:00:32;;;;;;;24.55;5.60;;;7.00;99.90;;;;;;5032488;28;20049;-73
2023/05/26 04:03:01;;;;;;;27.15;6.30;;;7.00;99.90;;;;;;5033598;28;20468;-74
2023/05/26 04:05:27;;;;;;;23.10;5.22;;;7.00;99.90;;;;;;5032716;28;20516;-73
2023/05/26 04:07:53;;;;;;;23.65;6.05;;;7.00;99.90;;;;;;5015843;28;20081;-73
2023/05/26 04:10:19;;;;;;;25.33;5.80;;;7.10;99.90;;;;;;5032534;28;20124;-73
2023/05/26 04:12:45;;;;;;;20.15;4.78;;;7.10;99.90;;;;;;5032366;28;20038;-73
2023/05/26 04:15:10;;;;;;;20.48;5.32;;;7.10;99.90;;;;;;5032215;28;20489;-73
2023/05/26 04:17:36;;;;;;;19.98;5.18;;;7.10;99.90;;;;;;5032273;28;20104;-73
2023/05/26 04:20:12;;;;;;;27.70;5.90;;;7.20;99.90;;;;;;5032419;28;20117;-73
2023/05/26 04:22:39;;;;;;;25.50;5.60;;;7.20;99.90;;;;;;5032432;28;20378;-73
2023/05/26 04:25:05;;;;;;;27.83;6.40;;;7.30;99.90;;;;;;5032013;28;20084;-74
2023/05/26 04:27:31;;;;;;;28.08;6.00;;;7.30;99.90;;;;;;5031610;28;20120;-73
2023/05/26 04:30:00;;;;;;;27.63;6.30;;;7.30;99.90;;;;;;5033568;28;20137;-74
2023/05/26 04:32:27;;;;;;;24.70;5.65;;;7.30;99.90;;;;;;5032174;28;20049;-74
2023/05/26 04:34:53;;;;;;;29.05;6.00;;;7.30;99.90;;;;;;5031986;28;20041;-73
2023/05/26 04:37:21;;;;;;;29.75;6.05;;;7.30;99.90;;;;;;5031827;28;20083;-73
2023/05/26 04:39:47;;;;;;;29.58;6.68;;;7.40;99.90;;;;;;5031883;28;20081;-73
2023/05/26 04:42:13;;;;;;;27.33;6.22;;;7.40;99.90;;;;;;5032079;28;20099;-74
2023/05/26 04:44:40;;;;;;;30.48;6.60;;;7.50;99.90;;;;;;5033331;28;20051;-73
2023/05/26 04:47:09;;;;;;;29.92;5.90;;;7.50;99.90;;;;;;5031772;28;20050;-74
2023/05/26 04:49:38;;;;;;;29.10;6.13;;;7.60;99.90;;;;;;5031721;28;20060;-73
2023/05/26 04:52:04;;;;;;;28.92;5.80;;;7.70;99.90;;;;;;5031655;28;20033;-73
2023/05/26 04:54:30;;;;;;;29.48;6.30;;;7.80;99.90;;;;;;5031846;28;20071;-73
2023/05/26 04:56:56;;;;;;;27.02;6.38;;;7.80;99.90;;;;;;5031696;28;20041;-73
2023/05/26 04:59:23;;;;;;;28.25;6.53;;;8.00;99.90;;;;;;5031620;28;20067;-73
2023/05/26 05:01:49;;;;;;;28.98;6.25;;;8.10;99.90;;;;;;5031892;28;20148;-73
2023/05/26 05:04:16;;;;;;;26.67;5.80;;;8.40;99.90;;;;;;5031635;28;20045;-73
2023/05/26 05:06:42;;;;;;;25.08;5.95;;;8.70;99.90;;;;;;5015082;28;20051;-74
2023/05/26 05:09:08;;;;;;;27.00;5.63;;;9.00;99.90;;;;;;5015089;28;20045;-76
2023/05/26 05:11:34;;;;;;;29.20;5.93;;;9.10;99.90;;;;;;5032767;28;20116;-73
2023/05/26 05:14:00;;;;;;;33.22;6.30;;;9.30;99.90;;;;;;5031807;28;20393;-74
2023/05/26 05:16:25;;;;;;;29.60;6.50;;;9.70;99.90;;;;;;5031445;28;20045;-74
2023/05/26 05:18:51;;;;;;;28.60;6.18;;;10.00;99.90;;;;;;5031479;28;20053;-73
2023/05/26 05:21:17;;;;;;;24.38;6.05;;;10.20;99.90;;;;;;5032739;28;20048;-73
2023/05/26 05:23:42;;;;;;;28.55;5.80;;;10.60;99.90;;;;;;5032734;28;20113;-73
2023/05/26 05:26:08;;;;;;;25.75;6.25;;;10.90;99.90;;;;;;5032878;28;20484;-74
2023/05/26 05:28:34;;;;;;;23.45;5.75;;;11.10;99.90;;;;;;5031488;28;20077;-73
2023/05/26 05:31:00;;;;;;;21.30;5.65;;;11.50;99.90;;;;;;5015348;28;20084;-73
2023/05/26 05:33:27;;;;;;;24.73;5.65;;;11.90;99.90;;;;;;5032926;28;20037;-74
2023/05/26 05:35:53;;;;;;;27.48;5.95;;;12.10;99.90;;;;;;5015148;28;20050;-73
2023/05/26 05:38:19;;;;;;;23.65;5.70;;;12.40;99.90;;;;;;5034918;28;20041;-73
2023/05/26 05:40:45;;;;;;;27.23;6.20;;;12.20;99.90;;;;;;5018750;28;20041;-74
2023/05/26 05:43:11;;;;;;;27.92;6.30;;;12.20;99.90;;;;;;5018884;28;20045;-74
2023/05/26 05:45:37;;;;;;;28.35;6.22;;;12.00;99.90;;;;;;5035040;28;20045;-74
2023/05/26 05:48:02;;;;;;;25.05;5.78;;;11.80;99.90;;;;;;5034902;28;20137;-74
2023/05/26 05:50:28;;;;;;;31.90;6.07;;;11.70;99.90;;;;;;5036517;28;20044;-74
2023/05/26 05:52:54;;;;;;;31.90;6.70;;;11.50;99.90;;;;;;5034931;28;20033;-74
2023/05/26 05:55:20;;;;;;;24.52;5.57;;;11.50;99.90;;;;;;5034840;28;20175;-74
2023/05/26 05:57:46;;;;;;;26.42;5.93;;;11.60;99.90;;;;;;5035183;28;20423;-74
2023/05/26 06:00:12;;;;;;;29.45;6.25;;;11.60;99.90;;;;;;5018286;28;20041;-74
2023/05/26 06:02:38;;;;;;;25.63;6.10;;;11.60;99.90;;;;;;5018321;28;20045;-74
2023/05/26 06:05:04;;;;;;;30.35;6.63;;;11.40;99.90;;;;;;5018315;28;20041;-74
2023/05/26 06:07:30;;;;;;;26.83;5.97;;;11.50;99.90;;;;;;5034781;28;20045;-74
2023/05/26 06:09:57;;;;;;;28.63;6.03;;;11.50;99.90;;;;;;5034723;28;20048;-74
2023/05/26 06:12:23;;;;;;;26.05;5.25;;;11.70;99.90;;;;;;5034755;28;20545;-74
2023/05/26 06:14:49;;;;;;;28.65;6.22;;;11.70;99.90;;;;;;5034305;28;20063;-73
2023/05/26 06:17:15;;;;;;;30.60;6.13;;;11.90;99.90;;;;;;5034404;28;20041;-74
2023/05/26 06:19:41;;;;;;;25.98;6.15;;;12.10;99.90;;;;;;5001609;28;20045;-73
2023/05/26 06:22:06;;;;;;;20.85;5.53;;;12.10;99.90;;;;;;5034339;28;20064;-74
2023/05/26 06:24:32;;;;;;;22.35;5.30;;;12.40;99.90;;;;;;5034338;28;20080;-73
2023/05/26 06:26:58;;;;;;;21.50;5.32;;;12.70;99.90;;;;;;5034160;28;20053;-74
2023/05/26 06:29:23;;;;;;;22.38;5.25;;;13.30;99.90;;;;;;5034221;28;20045;-73
2023/05/26 06:31:49;;;;;;;23.80;5.53;;;13.60;99.90;;;;;;5017636;28;20051;-73
2023/05/26 06:34:15;;;;;;;22.13;5.40;;;14.00;99.90;;;;;;5017756;28;20050;-74
2023/05/26 06:36:41;;;;;;;22.48;5.28;;;14.30;99.90;;;;;;5034048;28;20045;-74
2023/05/26 06:39:06;;;;;;;23.23;5.50;;;14.40;99.90;;;;;;5033978;28;20045;-74
2023/05/26 06:41:32;;;;;;;21.58;5.60;;;14.40;99.90;;;;;;5034153;28;20132;-74
2023/05/26 06:43:58;;;;;;;23.90;5.43;;;14.00;99.90;;;;;;5034162;28;20034;-74
2023/05/26 06:46:24;;;;;;;24.80;5.38;;;14.10;99.90;;;;;;5034260;28;20037;-74
2023/05/26 06:48:50;;;;;;;20.67;5.00;;;13.60;99.90;;;;;;5034502;28;20087;-74
2023/05/26 06:51:15;;;;;;;22.15;5.60;;;13.70;99.90;;;;;;5034074;28;20042;-74
2023/05/26 06:53:41;;;;;;;19.00;5.28;;;13.70;99.90;;;;;;5033795;28;20132;-74
2023/05/26 06:56:07;;;;;;;23.63;5.28;;;13.50;99.90;;;;;;5033856;28;20065;-74
2023/05/26 06:58:33;;;;;;;22.42;5.65;;;14.00;99.90;;;;;;5017220;28;20041;-74
2023/05/26 07:01:01;;;;;;;24.80;5.45;;;14.20;99.90;;;;;;5033631;28;20038;-74
2023/05/26 07:03:30;;;;;;;19.10;5.05;;;13.90;99.90;;;;;;5033569;28;20049;-74
2023/05/26 07:05:56;;;;;;;23.55;5.22;;;14.40;99.90;;;;;;5017174;28;20072;-74
2023/05/26 07:08:23;;;;;;;20.50;4.90;;;14.80;99.90;;;;;;5034764;28;20106;-75
2023/05/26 07:10:49;;;;;;;23.30;5.72;;;14.90;99.90;;;;;;5033425;28;20095;-75
2023/05/26 07:13:15;;;;;;;17.73;4.55;;;15.20;99.60;;;;;;5033459;28;20037;-74
2023/05/26 07:15:42;;;;;;;19.67;5.00;;;15.60;98.10;;;;;;5016951;28;20624;-74
2023/05/26 07:18:08;;;;;;;19.98;4.95;;;15.80;99.70;;;;;;5033274;28;20131;-75
2023/05/26 07:20:34;;;;;;;24.58;5.72;;;15.80;98.80;;;;;;5033345;28;20049;-75
2023/05/26 07:23:00;;;;;;;19.50;4.93;;;15.80;99.20;;;;;;5033203;28;20041;-75
2023/05/26 07:25:29;;;;;;;21.50;5.30;;;15.70;97.80;;;;;;5033383;28;20515;-75
2023/05/26 07:27:55;;;;;;;19.50;5.07;;;15.30;99.10;;;;;;5033124;28;20049;-75
2023/05/26 07:30:21;;;;;;;23.08;5.53;;;15.20;99.20;;;;;;5033092;28;20056;-75
2023/05/26 07:32:47;;;;;;;23.85;5.32;;;15.60;99.90;;;;;;5032974;28;20038;-75
2023/05/26 07:35:12;;;;;;;21.33;5.30;;;15.70;98.10;;;;;;5033301;28;20039;-75
2023/05/26 07:37:38;;;;;;;23.77;5.10;;;15.60;97.90;;;;;;5032854;28;20041;-75
2023/05/26 07:40:05;;;;;;;16.90;4.90;;;15.40;97.70;;;;;;5033190;28;20486;-75
2023/05/26 07:42:31;;;;;;;20.52;4.90;;;15.70;98.60;;;;;;5033110;28;20050;-75
2023/05/26 07:44:57;;;;;;;16.80;4.80;;;15.50;96.20;;;;;;5032866;28;20041;-74
2023/05/26 07:47:23;;;;;;;23.50;5.15;;;15.70;99.10;;;;;;5034092;28;20040;-75
2023/05/26 07:49:49;;;;;;;19.02;4.85;;;15.70;96.60;;;;;;5032595;28;20049;-75
2023/05/26 07:52:18;;;;;;;20.50;5.28;;;15.60;97.80;;;;;;5034164;28;20045;-75
2023/05/26 07:54:43;;;;;;;21.83;5.07;;;15.90;97.30;;;;;;5016208;28;20045;-75
2023/05/26 07:57:09;;;;;;;20.75;4.90;;;16.70;95.70;;;;;;5032865;28;20049;-75
2023/05/26 07:59:35;;;;;;;19.23;4.80;;;16.70;95.60;;;;;;5032733;28;20038;-75
2023/05/26 08:02:01;;;;;;;18.73;4.78;;;16.50;94.20;;;;;;5016309;28;20046;-74
2023/05/26 08:04:26;;;;;;;19.48;4.90;;;16.10;93.10;;;;;;5032453;28;20057;-75
2023/05/26 08:06:52;;;;;;;18.65;5.13;;;16.10;94.20;;;;;;5033577;28;20037;-74
2023/05/26 08:09:18;;;;;;;20.08;4.82;;;15.80;95.00;;;;;;5032322;28;20049;-75
2023/05/26 08:11:44;;;;;;;16.73;4.70;;;15.70;94.40;;;;;;5032350;28;20046;-75
2023/05/26 08:14:09;;;;;;;20.90;5.13;;;15.50;94.90;;;;;;5032376;28;20124;-73
2023/05/26 08:16:35;;;;;;;22.00;5.10;;;15.10;96.40;;;;;;5032089;28;20128;-75
2023/05/26 08:19:01;;;;;;;19.88;5.00;;;14.90;96.70;;;;;;5015787;28;20049;-74
2023/05/26 08:21:27;;;;;;;21.05;5.40;;;15.30;98.10;;;;;;5032478;28;20041;-75
2023/05/26 08:23:53;;;;;;;21.63;5.38;;;15.60;97.00;;;;;;5032098;28;20046;-74
2023/05/26 08:26:18;;;;;;;17.88;4.90;;;15.90;94.20;;;;;;5033313;28;20045;-74
2023/05/26 08:28:44;;;;;;;18.00;4.68;;;15.90;96.40;;;;;;5032006;28;20041;-75
2023/05/26 08:31:12;;;;;;;18.52;4.80;;;15.70;96.20;;;;;;5032027;28;20045;-74
2023/05/26 08:33:38;;;;;;;18.42;4.72;;;16.10;93.70;;;;;;5015488;28;20095;-75
2023/05/26 08:36:03;;;;;;;19.30;4.38;;;16.20;93.60;;;;;;5032297;28;20072;-74
2023/05/26 08:38:30;;;;;;;18.73;4.90;;;16.20;93.80;;;;;;5031822;28;20121;-74
2023/05/26 08:40:56;;;;;;;19.85;4.40;;;15.50;94.00;;;;;;5015876;28;20378;-74
2023/05/26 08:43:44;;;;;;;16.73;4.40;;;15.60;94.30;;;;;;5031658;28;20052;-75
2023/05/26 08:46:12;;;;;;;15.50;4.32;;;16.30;94.60;;;;;;5031731;28;20053;-75
2023/05/26 08:48:39;;;;;;;20.20;5.13;;;16.60;94.60;;;;;;5015436;28;20049;-75
2023/05/26 08:51:08;;;;;;;18.70;4.60;;;16.20;94.40;;;;;;5015537;28;20052;-75
2023/05/26 08:53:35;;;;;;;18.25;4.47;;;16.10;93.00;;;;;;5031966;28;20052;-75
2023/05/26 08:56:02;;;;;;;15.40;4.07;;;15.90;93.60;;;;;;5015729;28;20079;-75
2023/05/26 08:58:29;;;;;;;16.80;4.90;;;16.20;93.20;;;;;;5032009;28;20073;-75
2023/05/26 09:00:56;;;;;;;18.02;4.32;;;15.80;92.70;;;;;;5031918;28;20545;-75
2023/05/26 09:03:22;;;;;;;21.67;4.75;;;16.20;92.90;;;;;;5031624;28;20104;-75
2023/05/26 09:05:48;;;;;;;18.83;4.55;;;16.80;93.90;;;;;;5031656;28;20045;-75
2023/05/26 09:08:14;;;;;;;17.40;3.97;;;16.80;91.20;;;;;;5031554;28;20132;-75
2023/05/26 09:10:40;;;;;;;15.32;4.55;;;17.00;92.00;;;;;;5031828;28;20060;-75
2023/05/26 09:13:08;;;;;;;15.88;4.25;;;17.20;88.20;;;;;;5033826;28;20041;-75
2023/05/26 09:15:36;;;;;;;11.27;3.88;;;17.40;83.30;;;;;;5035608;28;20077;-76
2023/05/26 09:18:12;;;;;;;14.90;4.30;;;17.40;84.00;;;;;;5035550;28;20049;-75
2023/05/26 09:20:43;;;;;;;16.42;4.53;;;17.00;82.60;;;;;;5035524;28;20088;-75
2023/05/26 09:23:10;;;;;;;17.58;4.28;;;17.30;86.10;;;;;;5035414;28;20049;-75
2023/05/26 09:25:37;;;;;;;14.93;4.20;;;17.20;83.80;;;;;;5035646;28;20401;-75
2023/05/26 09:28:07;;;;;;;17.15;4.28;;;17.00;85.00;;;;;;5035546;28;20049;-76
2023/05/26 09:30:40;;;;;;;16.75;4.72;;;17.30;83.30;;;;;;5035366;28;20033;-76
2023/05/26 09:33:08;;;;;;;18.42;4.18;;;17.30;86.30;;;;;;5036862;28;20135;-75
2023/05/26 09:35:39;;;;;;;14.50;4.32;;;17.50;82.20;;;;;;5019045;28;20037;-76
2023/05/26 09:38:09;;;;;;;14.43;4.20;;;17.70;81.60;;;;;;5035141;28;20124;-76
2023/05/26 09:40:49;;;;;;;13.40;3.78;;;17.80;78.10;;;;;;5035490;28;20045;-76
2023/05/26 09:43:22;;;;;;;13.27;3.95;;;17.90;76.10;;;;;;5035379;28;20443;-76
2023/05/26 09:45:48;;;;;;;14.45;3.97;;;18.10;76.00;;;;;;5035126;28;20064;-76
2023/05/26 09:48:15;;;;;;;14.48;4.07;;;17.80;75.90;;;;;;5034993;28;20045;-76
2023/05/26 09:50:41;;;;;;;12.00;3.47;;;17.70;77.00;;;;;;5035304;28;20120;-76
2023/05/26 09:53:11;;;;;;;12.38;3.85;;;17.80;75.00;;;;;;5034930;28;20117;-76
2023/05/26 09:55:43;;;;;;;19.48;3.88;;;18.00;74.20;;;;;;5034905;28;20117;-76
2023/05/26 09:58:10;;;;;;;12.52;4.18;;;17.90;72.70;;;;;;5034906;28;20127;-76
2023/05/26 10:00:43;;;;;;;18.55;4.10;;;17.80;73.70;;;;;;5034843;28;20140;-75
2023/05/26 10:03:14;;;;;;;16.05;3.83;;;17.50;74.00;;;;;;5034745;28;20121;-75
2023/05/26 10:05:45;;;;;;;15.07;3.65;;;17.20;75.80;;;;;;5034712;28;20061;-76
2023/05/26 10:08:14;;;;;;;11.73;3.78;;;17.60;75.10;;;;;;5018022;28;20124;-76
2023/05/26 10:10:42;;;;;;;11.15;3.42;;;17.80;74.70;;;;;;5018357;28;20056;-76
2023/05/26 10:13:09;;;;;;;14.50;4.22;;;17.90;71.30;;;;;;5034594;28;20173;-76
2023/05/26 10:15:35;;;;;;;13.23;3.65;;;17.30;74.70;;;;;;5034291;28;20053;-75
2023/05/26 10:18:02;;;;;;;15.00;3.83;;;17.70;74.20;;;;;;5018009;28;20038;-76
2023/05/26 10:20:30;;;;;;;17.30;3.85;;;17.80;72.30;;;;;;5034425;28;20050;-76
2023/05/26 10:23:01;;;;;;;11.18;3.53;;;17.90;70.60;;;;;;5017788;28;20072;-76
2023/05/26 10:25:50;;;;;;;13.27;3.70;;;18.20;70.30;;;;;;5033268;28;20033;-76
2023/05/26 10:28:40;;;;;;;15.38;3.60;;;18.10;72.50;;;;;;5017846;28;20136;-76
2023/05/26 10:31:06;;;;;;;10.73;3.47;;;18.00;72.40;;;;;;5017993;28;20052;-76
2023/05/26 10:33:44;;;;;;;12.80;3.72;;;18.40;73.40;;;;;;5034401;28;20037;-76
2023/05/26 10:36:16;;;;;;;11.82;3.42;;;18.60;70.80;;;;;;5034263;28;20394;-76
2023/05/26 10:38:46;;;;;;;12.10;3.92;;;18.60;68.10;;;;;;4998400;28;20099;-76
2023/05/26 10:41:28;;;;;;;13.88;3.60;;;18.50;68.50;;;;;;5015556;28;20401;-77
2023/05/26 10:43:54;;;;;;;13.30;3.30;;;18.40;70.40;;;;;;5014264;28;20042;-76
2023/05/26 10:46:19;;;;;;;11.18;3.10;;;18.40;70.50;;;;;;5014161;28;20096;-76
2023/05/26 10:48:56;;;;;;;15.50;3.67;;;18.60;69.90;;;;;;5015285;28;20105;-77
2023/05/26 10:51:27;;;;;;;15.30;4.18;;;18.60;66.50;;;;;;5014339;28;20478;-77
2023/05/26 10:53:56;;;;;;;12.48;3.50;;;18.30;66.00;;;;;;5014268;28;20077;-77
2023/05/26 10:56:34;;;;;;;14.20;3.90;;;18.40;69.50;;;;;;5013961;28;20048;-77
2023/05/26 10:59:02;;;;;;;11.60;3.60;;;18.30;67.90;;;;;;5014231;28;20046;-77
2023/05/26 11:01:30;;;;;;;12.38;3.38;;;18.40;67.80;;;;;;5015068;28;20049;-76
2023/05/26 11:04:05;;;;;;;14.85;3.88;;;18.10;67.80;;;;;;5014130;28;20046;-76
2023/05/26 11:06:41;;;;;;;13.43;3.80;;;18.00;69.00;;;;;;5000493;28;20048;-76
2023/05/26 11:09:08;;;;;;;12.07;3.60;;;18.20;70.60;;;;;;5033643;28;20416;-77
2023/05/26 11:11:38;;;;;;;11.65;3.70;;;18.40;71.50;;;;;;5035002;28;20044;-77
2023/05/26 11:14:12;;;;;;;12.63;3.50;;;18.50;70.30;;;;;;5017229;28;20033;-77
2023/05/26 11:16:43;;;;;;;14.90;4.18;;;18.80;69.50;;;;;;5033309;28;20531;-76
2023/05/26 11:19:14;;;;;;;13.77;3.85;;;18.80;70.20;;;;;;5033588;28;20187;-77
2023/05/26 11:21:40;;;;;;;13.32;3.70;;;19.10;68.80;;;;;;5016788;28;20041;-75
2023/05/26 11:24:07;;;;;;;15.10;4.30;;;18.70;66.00;;;;;;5034548;28;20038;-75
2023/05/26 11:26:34;;;;;;;13.75;3.97;;;18.50;67.40;;;;;;5016719;28;20037;-76
2023/05/26 11:29:04;;;;;;;15.43;4.38;;;18.30;69.10;;;;;;5016718;28;20049;-74
2023/05/26 11:31:30;;;;;;;16.77;4.30;;;18.10;69.30;;;;;;5033135;28;20076;-76
2023/05/26 11:33:59;;;;;;;14.15;4.22;;;17.80;71.00;;;;;;5016653;28;20040;-76
2023/05/26 11:36:26;;;;;;;14.45;4.20;;;17.80;69.00;;;;;;5032574;28;20073;-76
2023/05/26 11:38:56;;;;;;;15.95;4.28;;;18.00;70.60;;;;;;5033051;28;20072;-76
2023/05/26 11:41:26;;;;;;;15.00;4.20;;;18.20;72.10;;;;;;5033029;28;20119;-76
2023/05/26 11:43:56;;;;;;;13.77;3.78;;;18.30;70.30;;;;;;5017005;28;20083;-76
2023/05/26 11:46:23;;;;;;;14.70;4.30;;;18.30;70.30;;;;;;5032852;28;20081;-76
2023/05/26 11:48:50;;;;;;;13.68;3.97;;;18.40;70.90;;;;;;5033013;28;20397;-77
2023/05/26 11:51:19;;;;;;;12.00;3.67;;;18.00;66.30;;;;;;5016308;28;20048;-76
2023/05/26 11:53:45;;;;;;;12.23;3.92;;;18.50;73.20;;;;;;5032996;28;20052;-77
2023/05/26 11:56:15;;;;;;;13.38;4.00;;;18.40;69.00;;;;;;5033210;28;20134;-77
2023/05/26 11:58:53;;;;;;;14.20;4.10;;;18.50;70.80;;;;;;5032844;28;20045;-76
2023/05/26 12:01:21;;;;;;;14.73;3.90;;;18.70;69.60;;;;;;5032545;28;20052;-77
2023/05/26 12:03:49;;;;;;;13.10;3.72;;;18.60;70.00;;;;;;5032792;28;20049;-77
2023/05/26 12:06:18;;;;;;;14.32;4.07;;;18.70;72.00;;;;;;5032466;28;20046;-77
2023/05/26 12:08:53;;;;;;;15.38;4.00;;;18.50;70.80;;;;;;5032365;28;20076;-77
2023/05/26 12:11:18;;;;;;;13.73;3.85;;;18.70;70.60;;;;;;5032410;28;20041;-78
2023/05/26 12:13:44;;;;;;;14.48;4.10;;;18.60;71.30;;;;;;5032271;28;20037;-77
2023/05/26 12:16:21;;;;;;;15.43;4.22;;;18.70;71.30;;;;;;5015800;28;20042;-76
2023/05/26 12:18:50;;;;;;;15.38;4.05;;;18.70;71.50;;;;;;5032404;28;20128;-77
2023/05/26 12:21:16;;;;;;;17.02;4.60;;;18.70;69.50;;;;;;5032241;28;20053;-77
2023/05/26 12:23:42;;;;;;;13.35;4.20;;;18.60;68.90;;;;;;5032102;28;20056;-77
2023/05/26 12:26:14;;;;;;;15.25;4.32;;;18.50;69.00;;;;;;4999432;28;20128;-77
2023/05/26 12:28:41;;;;;;;14.50;4.50;;;18.20;67.40;;;;;;5032140;28;20516;-77
2023/05/26 12:31:07;;;;;;;17.05;4.35;;;18.00;70.70;;;;;;5032304;28;20037;-77
2023/05/26 12:33:32;;;;;;;15.52;4.28;;;18.00;72.90;;;;;;5033580;28;20044;-77
2023/05/26 12:35:58;;;;;;;15.18;4.18;;;18.10;74.40;;;;;;5031939;28;20037;-76
2023/05/26 12:38:24;;;;;;;16.55;4.57;;;18.10;73.10;;;;;;5033193;28;20064;-76
2023/05/26 12:40:50;;;;;;;12.52;4.47;;;18.10;72.10;;;;;;5032131;28;20041;-76
2023/05/26 12:43:16;;;;;;;16.15;4.68;;;18.00;73.70;;;;;;5031864;28;20068;-76